createdAt,value
2023-01-17T00:02:01.773Z,1.52
2023-01-17T00:04:47.660Z,1.13
2023-01-17T00:07:36.733Z,2.13
2023-01-17T00:10:16.437Z,3.70
2023-01-17T00:13:02.718Z,2.13
2023-01-17T00:15:31.304Z,2.13
2023-01-17T00:17:58.653Z,2.42
2023-01-17T00:20:48.980Z,4.07
2023-01-17T00:23:35.916Z,1.52
2023-01-17T00:26:03.089Z,3.70
2023-01-17T00:28:40.723Z,2.17
2023-01-17T00:31:12.226Z,2.75
2023-01-17T00:33:39.077Z,6.43
2023-01-17T00:36:07.121Z,4.55
2023-01-17T00:38:36.522Z,3.05
2023-01-17T00:41:06.724Z,2.63
2023-01-17T00:43:52.697Z,2.65
2023-01-17T00:46:38.519Z,1.77
2023-01-17T00:49:24.604Z,2.78
2023-01-17T00:52:10.453Z,1.70
2023-01-17T00:54:57.086Z,1.00
2023-01-17T00:57:42.717Z,0.30
2023-01-17T01:00:29.078Z,0.30
2023-01-17T01:03:14.162Z,0.57
2023-01-17T01:05:59.267Z,0.75
2023-01-17T01:08:47.081Z,0.50
2023-01-17T01:11:35.632Z,0.88
2023-01-17T01:14:21.158Z,0.88
2023-01-17T01:17:06.680Z,0.57
2023-01-17T01:19:54.245Z,0.70
2023-01-17T01:22:39.535Z,0.40
2023-01-17T01:25:27.231Z,0.38
2023-01-17T01:28:20.700Z,0.40
2023-01-17T01:31:06.265Z,0.43
2023-01-17T01:33:33.041Z,0.60
2023-01-17T01:35:59.858Z,0.82
2023-01-17T01:38:27.129Z,0.75
2023-01-17T01:40:56.525Z,0.40
2023-01-17T01:43:49.524Z,0.40
2023-01-17T01:46:22.319Z,1.00
2023-01-17T01:48:56.592Z,1.00
2023-01-17T01:51:28.107Z,0.50
2023-01-17T01:54:03.502Z,0.40
2023-01-17T01:56:34.210Z,0.40
2023-01-17T01:59:04.272Z,0.80
2023-01-17T02:01:32.123Z,0.70
2023-01-17T02:03:59.295Z,0.22
2023-01-17T02:06:35.948Z,0.35
2023-01-17T02:09:08.741Z,0.50
2023-01-17T02:11:39.973Z,0.50
2023-01-17T02:14:07.126Z,0.82
2023-01-17T02:16:46.764Z,1.08
2023-01-17T02:19:40.716Z,0.95
2023-01-17T02:22:27.815Z,1.02
2023-01-17T02:25:26.576Z,0.85
2023-01-17T02:28:16.323Z,1.83
2023-01-17T02:30:48.232Z,1.08
2023-01-17T02:33:40.509Z,1.25
2023-01-17T02:36:25.940Z,1.35
2023-01-17T02:38:57.035Z,0.82
2023-01-17T02:41:35.572Z,1.45
2023-01-17T02:44:04.798Z,1.00
2023-01-17T02:46:31.593Z,1.05
2023-01-17T02:49:00.408Z,2.58
2023-01-17T02:51:46.292Z,1.05
2023-01-17T02:54:28.423Z,0.90
2023-01-17T02:57:43.261Z,1.13
2023-01-17T03:00:27.436Z,1.13
2023-01-17T03:03:09.381Z,1.08
2023-01-17T03:05:46.841Z,1.27
2023-01-17T03:08:14.989Z,0.95
2023-01-17T03:10:42.569Z,1.20
2023-01-17T03:13:09.417Z,0.73
2023-01-17T03:15:36.743Z,1.92
2023-01-17T03:18:07.168Z,1.40
2023-01-17T03:20:33.938Z,1.05
2023-01-17T03:23:01.728Z,0.88
2023-01-17T03:25:28.645Z,1.67
2023-01-17T03:27:55.572Z,0.88
2023-01-17T03:30:23.180Z,1.55
2023-01-17T03:32:50.420Z,1.00
2023-01-17T03:35:17.593Z,0.80
2023-01-17T03:37:46.960Z,1.20
2023-01-17T03:40:14.866Z,0.93
2023-01-17T03:42:41.755Z,1.08
2023-01-17T03:45:10.712Z,1.70
2023-01-17T03:47:39.960Z,1.38
2023-01-17T03:50:07.669Z,0.98
2023-01-17T03:52:34.664Z,0.82
2023-01-17T03:55:02.724Z,1.52
2023-01-17T03:57:29.828Z,0.60
2023-01-17T03:59:56.639Z,0.70
2023-01-17T04:02:24.319Z,1.00
2023-01-17T04:04:51.330Z,1.10
2023-01-17T04:07:18.225Z,1.25
2023-01-17T04:09:45.684Z,1.08
2023-01-17T04:12:12.559Z,0.75
2023-01-17T04:14:41.760Z,1.05
2023-01-17T04:17:13.167Z,1.33
2023-01-17T04:19:41.146Z,1.33
2023-01-17T04:22:08.888Z,1.20
2023-01-17T04:24:36.700Z,1.50
2023-01-17T04:27:05.136Z,1.63
2023-01-17T04:29:32.285Z,1.50
2023-01-17T04:31:59.093Z,1.40
2023-01-17T04:34:26.793Z,1.13
2023-01-17T04:36:53.672Z,1.30
2023-01-17T04:39:20.497Z,1.35
2023-01-17T04:41:47.365Z,0.98
2023-01-17T04:44:14.450Z,1.10
2023-01-17T04:46:41.274Z,1.08
2023-01-17T04:49:08.131Z,1.45
2023-01-17T04:51:34.986Z,1.25
2023-01-17T04:54:01.972Z,1.40
2023-01-17T04:56:28.781Z,1.90
2023-01-17T04:58:58.720Z,1.63
2023-01-17T05:01:25.849Z,1.10
2023-01-17T05:03:52.812Z,1.60
2023-01-17T05:06:20.777Z,1.20
2023-01-17T05:08:47.555Z,1.48
2023-01-17T05:11:14.459Z,1.30
2023-01-17T05:13:41.815Z,2.15
2023-01-17T05:16:08.684Z,1.23
2023-01-17T05:18:35.504Z,1.35
2023-01-17T05:21:03.651Z,1.08
2023-01-17T05:23:34.011Z,1.30
2023-01-17T05:26:01.841Z,1.00
2023-01-17T05:28:28.725Z,0.85
2023-01-17T05:30:56.099Z,1.20
2023-01-17T05:33:22.968Z,1.08
2023-01-17T05:35:49.741Z,1.20
2023-01-17T05:38:17.305Z,1.52
2023-01-17T05:40:45.252Z,1.23
2023-01-17T05:43:12.115Z,1.40
2023-01-17T05:45:38.869Z,1.50
2023-01-17T05:48:06.713Z,1.10
2023-01-17T05:50:37.913Z,1.30
2023-01-17T05:53:10.959Z,1.05
2023-01-17T05:55:40.875Z,2.13
2023-01-17T05:58:12.827Z,1.70
2023-01-17T06:00:39.730Z,1.27
2023-01-17T06:03:06.538Z,1.90
2023-01-17T06:05:33.365Z,1.42
2023-01-17T06:08:00.263Z,1.58
2023-01-17T06:10:28.371Z,1.50
2023-01-17T06:13:13.632Z,1.95
2023-01-17T06:15:43.488Z,1.27
2023-01-17T06:18:14.697Z,1.55
2023-01-17T06:20:41.890Z,1.50
2023-01-17T06:23:12.274Z,1.70
2023-01-17T06:25:42.765Z,2.33
2023-01-17T06:28:10.480Z,2.40
2023-01-17T06:30:37.475Z,3.08
2023-01-17T06:33:07.351Z,2.70
2023-01-17T06:35:34.249Z,4.18
2023-01-17T06:38:01.792Z,3.80
2023-01-17T06:40:30.067Z,4.00
2023-01-17T06:43:04.572Z,9.27
2023-01-17T06:45:35.021Z,3.50
2023-01-17T06:48:04.252Z,4.07
2023-01-17T06:50:32.565Z,4.15
2023-01-17T06:53:04.559Z,4.93
2023-01-17T06:55:34.307Z,5.57
2023-01-17T06:58:04.318Z,5.07
2023-01-17T07:00:35.065Z,5.25
2023-01-17T07:03:02.398Z,5.38
2023-01-17T07:05:29.718Z,4.60
2023-01-17T07:07:58.365Z,5.10
2023-01-17T07:10:25.181Z,6.45
2023-01-17T07:12:52.243Z,5.72
2023-01-17T07:15:19.083Z,6.50
2023-01-17T07:17:49.473Z,25.60
2023-01-17T07:20:16.636Z,7.63
2023-01-17T07:22:46.856Z,10.13
2023-01-17T07:25:13.689Z,9.48
2023-01-17T07:27:40.486Z,5.93
2023-01-17T07:30:07.864Z,9.07
2023-01-17T07:32:35.446Z,6.13
2023-01-17T07:35:03.304Z,6.40
2023-01-17T07:37:30.071Z,6.75
2023-01-17T07:39:59.312Z,7.32
2023-01-17T07:42:26.059Z,6.60
2023-01-17T07:44:52.914Z,6.07
2023-01-17T07:47:21.120Z,6.05
2023-01-17T07:49:49.184Z,6.05
2023-01-17T07:52:18.148Z,6.28
2023-01-17T07:54:45.070Z,6.13
2023-01-17T07:57:13.029Z,5.57
2023-01-17T07:59:40.748Z,5.75
2023-01-17T08:02:17.822Z,5.88
2023-01-17T08:04:46.937Z,5.05
2023-01-17T08:07:16.994Z,5.43
2023-01-17T08:09:44.819Z,5.30
2023-01-17T08:12:11.667Z,5.28
2023-01-17T08:14:40.582Z,5.40
2023-01-17T08:17:11.037Z,4.45
2023-01-17T08:19:37.899Z,4.13
2023-01-17T08:22:05.135Z,10.15
2023-01-17T08:24:31.974Z,14.55
2023-01-17T08:27:01.202Z,22.98
2023-01-17T08:29:27.943Z,11.35
2023-01-17T08:31:55.817Z,7.32
2023-01-17T08:34:23.770Z,22.10
2023-01-17T08:36:52.900Z,10.13
2023-01-17T08:39:21.340Z,36.92
2023-01-17T08:41:48.256Z,19.83
2023-01-17T08:44:18.772Z,3.55
2023-01-17T08:46:46.947Z,16.00
2023-01-17T08:49:13.844Z,4.13
2023-01-17T08:51:41.757Z,5.78
2023-01-17T08:54:11.882Z,9.65
2023-01-17T08:56:40.253Z,4.47
2023-01-17T08:59:13.238Z,3.50
2023-01-17T09:01:46.036Z,4.45
2023-01-17T09:04:13.613Z,3.38
2023-01-17T09:06:45.768Z,3.97
2023-01-17T09:09:13.665Z,4.15
2023-01-17T09:11:40.543Z,4.25
2023-01-17T09:14:07.458Z,4.60
2023-01-17T09:16:34.444Z,6.32
2023-01-17T09:19:01.311Z,3.65
2023-01-17T09:21:28.513Z,3.97
2023-01-17T09:23:55.713Z,3.50
2023-01-17T09:26:24.407Z,5.60
2023-01-17T09:28:51.980Z,5.60
2023-01-17T09:31:21.753Z,5.55
2023-01-17T09:33:51.482Z,3.80
2023-01-17T09:36:20.430Z,4.20
2023-01-17T09:38:47.312Z,3.42
2023-01-17T09:41:22.241Z,3.65
2023-01-17T09:44:04.772Z,4.72
2023-01-17T09:46:46.521Z,3.25
2023-01-17T09:49:41.780Z,3.38
2023-01-17T09:52:13.569Z,2.95
2023-01-17T09:54:46.355Z,2.33
2023-01-17T09:57:22.232Z,2.70
2023-01-17T10:00:06.428Z,2.40
2023-01-17T10:02:45.778Z,2.33
2023-01-17T10:05:34.500Z,2.38
2023-01-17T10:08:16.193Z,2.88
2023-01-17T10:10:57.834Z,10.23
2023-01-17T10:16:20.421Z,3.85
2023-01-17T10:18:59.284Z,2.70
2023-01-17T10:21:44.395Z,2.53
2023-01-17T10:24:32.083Z,2.40
2023-01-17T10:27:02.260Z,3.63
2023-01-17T10:29:34.579Z,4.35
2023-01-17T10:32:02.515Z,3.20
2023-01-17T10:34:58.253Z,2.80
2023-01-17T10:37:42.333Z,2.58
2023-01-17T10:40:32.706Z,2.85
2023-01-17T10:43:11.808Z,3.08
2023-01-17T10:45:48.724Z,2.88
2023-01-17T10:48:42.316Z,3.17
2023-01-17T10:51:11.523Z,2.85
2023-01-17T10:53:56.881Z,3.25
2023-01-17T10:56:27.825Z,3.67
2023-01-17T10:59:18.628Z,2.53
2023-01-17T11:01:45.800Z,3.03
2023-01-17T11:04:22.729Z,2.90
2023-01-17T11:07:19.146Z,3.28
2023-01-17T11:09:54.564Z,3.63
2023-01-17T11:12:29.099Z,3.97
2023-01-17T11:15:11.564Z,8.02
2023-01-17T11:17:44.984Z,4.97
2023-01-17T11:20:34.617Z,5.97
2023-01-17T11:23:12.726Z,10.48
2023-01-17T11:25:39.620Z,7.85
2023-01-17T11:28:30.344Z,5.30
2023-01-17T11:31:03.677Z,5.47
2023-01-17T11:33:48.787Z,4.65
2023-01-17T11:36:21.652Z,4.40
2023-01-17T11:38:59.223Z,4.85
2023-01-17T11:41:28.320Z,5.20
2023-01-17T11:43:58.927Z,4.35
2023-01-17T11:46:29.166Z,4.33
2023-01-17T11:48:59.642Z,4.60
2023-01-17T11:51:35.089Z,5.18
2023-01-17T11:54:24.980Z,5.07
2023-01-17T11:56:58.053Z,5.32
2023-01-17T11:59:37.528Z,4.30
2023-01-17T12:02:04.443Z,3.85
2023-01-17T12:04:48.508Z,3.95
2023-01-17T12:07:21.257Z,3.42
2023-01-17T12:10:09.332Z,4.43
2023-01-17T12:13:32.461Z,3.67
2023-01-17T12:16:31.267Z,4.03
2023-01-17T12:19:22.408Z,4.07
2023-01-17T12:22:11.244Z,4.13
2023-01-17T12:24:55.622Z,3.35
2023-01-17T12:27:47.110Z,2.95
2023-01-17T12:30:22.427Z,3.40
2023-01-17T12:33:01.160Z,2.60
2023-01-17T12:35:33.904Z,3.13
2023-01-17T12:38:09.285Z,2.50
2023-01-17T12:40:46.150Z,2.22
2023-01-17T12:43:33.000Z,2.53
2023-01-17T12:46:05.614Z,2.72
2023-01-17T12:48:36.820Z,2.58
2023-01-17T12:51:35.604Z,13.95
2023-01-17T12:54:12.393Z,7.28
2023-01-17T12:56:54.010Z,4.13
2023-01-17T13:01:58.398Z,9.18
2023-01-17T13:04:53.122Z,5.88
2023-01-17T13:08:05.058Z,2.28
2023-01-17T13:10:35.472Z,2.63
2023-01-17T13:13:26.201Z,4.50
2023-01-17T13:16:03.252Z,4.03
2023-01-17T13:18:32.858Z,1.90
2023-01-17T13:21:40.135Z,6.13
2023-01-17T13:24:22.795Z,6.38
2023-01-17T13:26:55.741Z,2.75
2023-01-17T13:29:48.935Z,2.60
2023-01-17T13:32:36.739Z,3.65
2023-01-17T13:35:22.544Z,1.98
2023-01-17T13:38:03.273Z,2.05
2023-01-17T13:40:49.950Z,3.30
2023-01-17T13:43:26.651Z,5.78
2023-01-17T13:45:56.693Z,3.00
2023-01-17T13:48:25.828Z,2.33
2023-01-17T13:51:04.835Z,3.80
2023-01-17T13:53:34.293Z,5.70
2023-01-17T13:56:19.200Z,1.35
2023-01-17T13:58:50.662Z,2.10
2023-01-17T14:01:23.708Z,2.40
2023-01-17T14:03:54.124Z,4.00
2023-01-17T14:06:35.906Z,3.47
2023-01-17T14:09:12.403Z,4.03
2023-01-17T14:11:57.352Z,1.80
2023-01-17T14:14:47.810Z,2.00
2023-01-17T14:17:25.759Z,1.48
2023-01-17T14:19:58.492Z,3.45
2023-01-17T14:22:29.054Z,10.80
2023-01-17T14:24:59.333Z,5.20
2023-01-17T14:27:28.777Z,2.03
2023-01-17T14:30:01.739Z,7.65
2023-01-17T14:32:37.780Z,8.90
2023-01-17T14:35:05.910Z,3.45
2023-01-17T14:38:01.796Z,2.50
2023-01-17T14:40:31.305Z,5.30
2023-01-17T14:43:04.365Z,4.28
2023-01-17T14:45:33.965Z,2.13
2023-01-17T14:48:04.588Z,3.75
2023-01-17T14:50:42.405Z,2.30
2023-01-17T14:53:32.143Z,2.08
2023-01-17T14:56:15.922Z,2.42
2023-01-17T14:58:43.783Z,2.63
2023-01-17T15:01:19.584Z,2.90
2023-01-17T15:03:53.587Z,2.63
2023-01-17T15:06:40.854Z,3.17
2023-01-17T15:09:20.643Z,2.38
2023-01-17T15:11:50.061Z,2.15
2023-01-17T15:14:29.981Z,1.65
2023-01-17T15:16:56.928Z,1.60
2023-01-17T15:19:23.907Z,3.75
2023-01-17T15:21:54.037Z,2.45
2023-01-17T15:24:27.576Z,6.78
2023-01-17T15:26:55.122Z,5.50
2023-01-17T15:29:25.824Z,5.65
2023-01-17T15:31:55.343Z,3.92
2023-01-17T15:34:25.129Z,3.70
2023-01-17T15:36:52.742Z,3.30
2023-01-17T15:39:23.595Z,1.95
2023-01-17T15:41:59.699Z,1.60
2023-01-17T15:44:48.119Z,1.77
2023-01-17T15:47:39.530Z,2.50
2023-01-17T15:50:38.566Z,2.30
2023-01-17T15:53:26.836Z,1.40
2023-01-17T15:55:54.103Z,1.27
2023-01-17T15:58:25.837Z,1.52
2023-01-17T16:00:52.990Z,1.20
2023-01-17T16:03:19.834Z,1.60
2023-01-17T16:05:48.256Z,1.77
2023-01-17T16:08:39.537Z,1.60
2023-01-17T16:11:08.343Z,1.58
2023-01-17T16:13:43.292Z,1.50
2023-01-17T16:16:25.864Z,1.88
2023-01-17T16:18:59.645Z,1.50
2023-01-17T16:21:29.997Z,2.05
2023-01-17T16:23:57.256Z,2.65
2023-01-17T16:26:24.443Z,2.95
2023-01-17T16:28:51.737Z,2.35
2023-01-17T16:31:18.963Z,5.63
2023-01-17T16:34:10.044Z,7.13
2023-01-17T16:36:36.945Z,5.18
2023-01-17T16:39:03.943Z,5.72
2023-01-17T16:41:30.806Z,5.03
2023-01-17T16:44:00.414Z,3.72
2023-01-17T16:46:28.395Z,2.80
2023-01-17T16:48:55.706Z,2.58
2023-01-17T16:51:22.838Z,3.60
2023-01-17T16:53:49.899Z,3.58
2023-01-17T16:56:18.529Z,4.03
2023-01-17T16:58:46.783Z,4.47
2023-01-17T17:01:16.102Z,3.75
2023-01-17T17:03:45.849Z,3.10
2023-01-17T17:06:13.314Z,4.20
2023-01-17T17:09:00.277Z,10.43
2023-01-17T17:11:27.200Z,11.15
2023-01-17T17:13:54.123Z,7.65
2023-01-17T17:16:26.528Z,7.07
2023-01-17T17:19:01.388Z,7.80
2023-01-17T17:21:29.421Z,7.07
2023-01-17T17:23:57.936Z,7.38
2023-01-17T17:26:27.630Z,9.20
2023-01-17T17:28:54.859Z,11.48
2023-01-17T17:31:21.842Z,15.50
2023-01-17T17:33:50.057Z,19.90
2023-01-17T17:36:17.582Z,29.88
2023-01-17T17:38:50.772Z,43.35
2023-01-17T17:41:23.830Z,45.42
2023-01-17T17:43:52.307Z,27.63
2023-01-17T17:46:21.108Z,22.48
2023-01-17T17:48:50.457Z,28.00
2023-01-17T17:51:28.550Z,27.05
2023-01-17T17:54:00.901Z,26.10
2023-01-17T17:56:29.617Z,17.15
2023-01-17T17:58:57.836Z,14.90
2023-01-17T18:01:24.953Z,15.20
2023-01-17T18:03:56.281Z,13.57
2023-01-17T18:06:24.029Z,14.10
2023-01-17T18:08:52.300Z,13.52
2023-01-17T18:11:29.351Z,13.70
2023-01-17T18:13:59.525Z,14.15
2023-01-17T18:16:34.211Z,9.80
2023-01-17T18:19:03.150Z,9.48
2023-01-17T18:21:38.866Z,7.78
2023-01-17T18:24:13.812Z,10.93
2023-01-17T18:26:43.952Z,20.73
2023-01-17T18:29:33.621Z,14.40
2023-01-17T18:32:01.462Z,10.55
2023-01-17T18:34:33.081Z,13.52
2023-01-17T18:37:00.316Z,14.98
2023-01-17T18:39:29.643Z,17.63
2023-01-17T18:41:56.943Z,17.13
2023-01-17T18:44:23.977Z,15.55
2023-01-17T18:46:53.046Z,11.00
2023-01-17T18:49:20.411Z,6.80
2023-01-17T18:51:51.554Z,6.63
2023-01-17T18:56:51.254Z,7.10
2023-01-17T18:59:18.535Z,6.60
2023-01-17T19:01:46.813Z,6.50
2023-01-17T19:04:17.345Z,5.53
2023-01-17T19:06:47.219Z,5.55
2023-01-17T19:09:15.658Z,6.45
2023-01-17T19:11:45.860Z,6.75
2023-01-17T19:14:13.204Z,7.32
2023-01-17T19:16:41.751Z,7.45
2023-01-17T19:19:13.274Z,7.40
2023-01-17T19:21:40.884Z,6.70
2023-01-17T19:24:08.959Z,7.53
2023-01-17T19:26:37.224Z,6.78
2023-01-17T19:29:13.954Z,6.72
2023-01-17T19:31:43.197Z,6.43
2023-01-17T19:34:10.699Z,6.22
2023-01-17T19:36:38.837Z,6.60
2023-01-17T19:39:09.535Z,6.25
2023-01-17T19:41:41.712Z,6.63
2023-01-17T19:44:11.991Z,8.40
2023-01-17T19:46:40.436Z,7.35
2023-01-17T19:49:08.814Z,7.85
2023-01-17T19:51:38.177Z,6.78
2023-01-17T19:54:07.941Z,7.50
2023-01-17T19:56:35.052Z,7.65
2023-01-17T19:59:02.418Z,8.15
2023-01-17T20:01:32.518Z,7.82
2023-01-17T20:04:00.919Z,8.60
2023-01-17T20:06:30.785Z,8.02
2023-01-17T20:08:59.374Z,7.78
2023-01-17T20:11:27.900Z,8.18
2023-01-17T20:14:00.223Z,8.27
2023-01-17T20:16:30.178Z,8.52
2023-01-17T20:18:59.269Z,8.50
2023-01-17T20:21:29.011Z,8.60
2023-01-17T20:23:58.258Z,8.20
2023-01-17T20:26:31.272Z,8.57
2023-01-17T20:28:58.613Z,8.18
2023-01-17T20:31:26.039Z,8.25
2023-01-17T20:33:55.046Z,8.52
2023-01-17T20:36:24.640Z,8.27
2023-01-17T20:38:54.535Z,10.77
2023-01-17T20:41:26.161Z,10.65
2023-01-17T20:43:56.021Z,11.13
2023-01-17T20:46:29.057Z,11.85
2023-01-17T20:49:04.905Z,11.50
2023-01-17T20:51:35.419Z,11.82
2023-01-17T20:54:05.290Z,11.20
2023-01-17T20:56:34.734Z,9.82
2023-01-17T20:59:08.769Z,10.77
2023-01-17T21:01:37.047Z,9.48
2023-01-17T21:04:05.569Z,10.18
2023-01-17T21:06:33.625Z,9.60
2023-01-17T21:09:00.839Z,9.70
2023-01-17T21:11:30.822Z,9.50
2023-01-17T21:13:57.753Z,10.23
2023-01-17T21:16:28.057Z,10.10
2023-01-17T21:18:55.057Z,10.07
2023-01-17T21:21:24.667Z,10.05
2023-01-17T21:23:53.782Z,10.27
2023-01-17T21:26:22.414Z,10.35
2023-01-17T21:28:50.866Z,10.65
2023-01-17T21:31:29.821Z,9.70
2023-01-17T21:33:59.902Z,11.18
2023-01-17T21:36:29.674Z,9.57
2023-01-17T21:38:58.255Z,10.38
2023-01-17T21:41:28.691Z,10.32
2023-01-17T21:44:01.264Z,11.00
2023-01-17T21:46:29.336Z,10.88
2023-01-17T21:48:57.589Z,9.93
2023-01-17T21:51:47.056Z,9.63
2023-01-17T21:54:17.088Z,11.38
2023-01-17T21:57:03.556Z,11.43
2023-01-17T21:59:33.084Z,10.90
2023-01-17T22:02:01.023Z,10.48
2023-01-17T22:04:29.478Z,10.40
2023-01-17T22:06:56.327Z,10.48
2023-01-17T22:09:23.082Z,9.35
2023-01-17T22:11:49.851Z,10.27
2023-01-17T22:14:16.621Z,9.85
2023-01-17T22:16:43.441Z,9.93
2023-01-17T22:19:10.217Z,10.25
2023-01-17T22:21:37.430Z,9.48
2023-01-17T22:24:05.254Z,8.65
2023-01-17T22:26:32.101Z,8.75
2023-01-17T22:29:02.574Z,8.95
2023-01-17T22:31:29.420Z,8.93
2023-01-17T22:34:00.693Z,8.43
2023-01-17T22:36:28.632Z,9.98
2023-01-17T22:38:55.724Z,8.75
2023-01-17T22:41:25.182Z,8.68
2023-01-17T22:43:53.707Z,8.60
2023-01-17T22:46:23.342Z,9.13
2023-01-17T22:48:50.800Z,8.32
2023-01-17T22:51:18.865Z,8.70
2023-01-17T22:53:49.980Z,9.60
2023-01-17T22:56:22.459Z,8.73
2023-01-17T22:58:50.021Z,8.48
2023-01-17T23:01:20.127Z,9.50
2023-01-17T23:03:52.208Z,9.52
2023-01-17T23:06:25.657Z,8.55
2023-01-17T23:08:54.450Z,9.02
2023-01-17T23:11:38.894Z,8.85
2023-01-17T23:14:06.682Z,9.10
2023-01-17T23:16:52.130Z,8.88
2023-01-17T23:19:25.045Z,8.85
2023-01-17T23:22:15.711Z,8.88
2023-01-17T23:24:55.212Z,8.77
2023-01-17T23:27:56.188Z,8.45
2023-01-17T23:30:35.539Z,9.07
2023-01-17T23:33:11.229Z,8.90
2023-01-17T23:35:42.066Z,8.57
2023-01-17T23:38:29.745Z,8.85
2023-01-17T23:41:26.786Z,10.73
2023-01-17T23:43:59.075Z,10.65
2023-01-17T23:46:26.611Z,8.77
2023-01-17T23:48:54.809Z,9.65
2023-01-17T23:51:21.658Z,9.13
2023-01-17T23:53:48.579Z,8.18
2023-01-17T23:56:23.585Z,8.68
2023-01-17T23:58:50.700Z,10.18
